createdAt,value
2023-03-28T00:03:27.584Z,5.90
2023-03-28T00:08:21.320Z,5.90
2023-03-28T00:13:15.426Z,6.00
2023-03-28T00:18:08.362Z,7.50
2023-03-28T00:23:01.167Z,7.00
2023-03-28T00:27:53.986Z,7.70
2023-03-28T00:32:46.876Z,5.50
2023-03-28T00:37:41.949Z,4.00
2023-03-28T00:42:34.914Z,5.10
2023-03-28T00:47:49.687Z,6.20
2023-03-28T00:52:50.051Z,8.40
2023-03-28T00:57:44.785Z,6.90
2023-03-28T01:02:57.029Z,6.10
2023-03-28T01:08:33.702Z,8.20
2023-03-28T01:13:58.577Z,6.20
2023-03-28T01:25:10.599Z,5.30
2023-03-28T01:30:25.586Z,7.00
2023-03-28T01:36:03.133Z,6.20
2023-03-28T01:41:01.159Z,9.70
2023-03-28T01:46:34.322Z,10.30
2023-03-28T01:51:56.182Z,8.90
2023-03-28T01:57:07.425Z,9.80
2023-03-28T02:02:12.433Z,9.80
2023-03-28T02:07:22.227Z,9.30
2023-03-28T02:13:19.116Z,10.40
2023-03-28T02:18:29.960Z,10.50
2023-03-28T02:23:53.891Z,9.30
2023-03-28T02:29:30.648Z,10.40
2023-03-28T02:40:14.496Z,7.20
2023-03-28T02:45:43.113Z,12.40
2023-03-28T02:51:04.215Z,9.60
2023-03-28T02:56:13.738Z,7.90
2023-03-28T03:01:40.238Z,8.80
2023-03-28T03:06:35.416Z,10.20
2023-03-28T03:11:30.867Z,10.50
2023-03-28T03:16:30.430Z,9.90
2023-03-28T03:21:25.837Z,11.40
2023-03-28T03:26:24.235Z,10.80
2023-03-28T03:31:34.093Z,10.20
2023-03-28T03:36:50.560Z,10.70
2023-03-28T03:41:55.315Z,14.60
2023-03-28T03:47:07.568Z,13.00
2023-03-28T03:52:15.332Z,11.10
2023-03-28T03:57:10.018Z,15.80
2023-03-28T04:02:05.792Z,8.40
2023-03-28T04:07:06.836Z,11.80
2023-03-28T04:12:00.414Z,12.30
2023-03-28T04:16:54.093Z,12.60
2023-03-28T04:21:49.901Z,13.30
2023-03-28T04:26:46.065Z,11.50
2023-03-28T04:31:40.134Z,10.10
2023-03-28T04:36:37.806Z,14.50
2023-03-28T04:41:33.468Z,11.60
2023-03-28T04:46:44.458Z,11.80
2023-03-28T04:51:39.102Z,13.40
2023-03-28T04:56:33.272Z,12.80
2023-03-28T05:01:28.031Z,17.40
2023-03-28T05:06:53.504Z,16.00
2023-03-28T05:11:47.381Z,15.30
2023-03-28T05:16:42.890Z,18.90
2023-03-28T05:22:11.255Z,15.40
2023-03-28T05:27:06.652Z,15.70
2023-03-28T05:31:59.657Z,15.70
2023-03-28T05:36:56.834Z,12.20
2023-03-28T05:42:00.595Z,14.30
2023-03-28T05:46:53.484Z,20.40
2023-03-28T05:51:46.603Z,13.00
2023-03-28T05:56:39.961Z,10.40
2023-03-28T06:01:35.037Z,12.20
2023-03-28T06:06:28.995Z,13.80
2023-03-28T06:11:21.885Z,15.20
2023-03-28T06:16:34.910Z,13.60
2023-03-28T06:21:28.613Z,16.60
2023-03-28T06:26:21.667Z,14.40
2023-03-28T06:31:15.553Z,16.40
2023-03-28T06:36:10.113Z,14.50
2023-03-28T06:41:03.151Z,16.40
2023-03-28T06:45:56.388Z,14.90
2023-03-28T06:50:51.160Z,19.50
2023-03-28T06:55:47.190Z,16.10
2023-03-28T07:00:40.177Z,15.70
2023-03-28T07:06:09.914Z,17.30
2023-03-28T07:11:03.253Z,19.50
2023-03-28T07:16:02.531Z,22.30
2023-03-28T07:21:03.912Z,16.70
2023-03-28T07:25:58.093Z,20.50
2023-03-28T07:30:51.201Z,14.50
2023-03-28T07:35:44.048Z,20.70
2023-03-28T07:40:38.780Z,18.00
2023-03-28T07:45:32.609Z,13.90
2023-03-28T07:50:25.627Z,18.80
2023-03-28T07:55:18.871Z,16.50
2023-03-28T08:00:17.484Z,16.30
2023-03-28T08:05:14.110Z,15.80
2023-03-28T08:10:07.924Z,14.80
2023-03-28T08:15:01.203Z,19.60
2023-03-28T08:19:54.767Z,14.80
2023-03-28T08:24:53.804Z,17.00
2023-03-28T08:29:48.860Z,10.60
2023-03-28T08:34:42.637Z,15.90
2023-03-28T08:39:42.612Z,14.80
2023-03-28T08:45:03.537Z,14.00
2023-03-28T08:50:04.811Z,14.00
2023-03-28T08:55:10.437Z,18.20
2023-03-28T09:00:22.880Z,22.20
2023-03-28T09:05:23.830Z,13.00
2023-03-28T09:10:25.125Z,13.60
2023-03-28T09:15:43.635Z,8.20
2023-03-28T09:21:00.969Z,7.90
2023-03-28T09:26:08.802Z,9.30
2023-03-28T09:31:03.568Z,12.30
2023-03-28T09:35:58.408Z,8.30
2023-03-28T09:40:56.298Z,4.40
2023-03-28T09:46:15.723Z,5.30
2023-03-28T09:51:24.357Z,3.50
2023-03-28T09:56:34.364Z,3.50
2023-03-28T10:01:49.324Z,5.30
2023-03-28T10:06:49.493Z,5.90
2023-03-28T10:11:54.703Z,7.20
2023-03-28T10:16:49.401Z,11.40
2023-03-28T10:21:53.105Z,11.80
2023-03-28T10:26:48.266Z,9.30
2023-03-28T10:31:49.141Z,11.60
2023-03-28T10:37:28.012Z,12.30
2023-03-28T10:42:47.035Z,12.90
2023-03-28T10:48:19.428Z,15.00
2023-03-28T10:53:19.282Z,11.50
2023-03-28T10:58:36.434Z,12.50
2023-03-28T11:04:19.477Z,9.30
2023-03-28T11:09:23.500Z,9.20
2023-03-28T11:15:01.767Z,7.90
2023-03-28T11:20:28.479Z,6.00
2023-03-28T11:25:49.154Z,6.00
2023-03-28T11:31:20.351Z,7.60
2023-03-28T11:36:54.137Z,3.90
2023-03-28T11:41:50.676Z,4.60
2023-03-28T11:47:09.482Z,3.40
2023-03-28T11:52:26.744Z,3.40
2023-03-28T11:57:35.020Z,3.60
2023-03-28T12:02:31.812Z,4.60
2023-03-28T12:07:37.212Z,5.40
2023-03-28T12:12:59.640Z,2.90
2023-03-28T12:17:58.851Z,3.30
2023-03-28T12:23:00.223Z,2.50
2023-03-28T12:28:35.840Z,4.30
2023-03-28T12:33:48.965Z,3.30
2023-03-28T12:38:59.782Z,2.90
2023-03-28T12:44:05.363Z,3.40
2023-03-28T12:54:15.576Z,5.00
2023-03-28T12:59:39.980Z,3.10
2023-03-28T13:04:49.626Z,2.20
2023-03-28T13:10:00.621Z,1.60
2023-03-28T13:20:30.122Z,3.10
2023-03-28T13:25:39.449Z,2.20
2023-03-28T13:30:33.534Z,3.40
2023-03-28T13:36:12.190Z,6.70
2023-03-28T13:46:21.326Z,2.10
2023-03-28T13:51:20.361Z,3.90
2023-03-28T13:56:25.153Z,2.20
2023-03-28T14:01:24.566Z,5.10
2023-03-28T14:06:23.513Z,2.60
2023-03-28T14:11:21.196Z,1.80
2023-03-28T14:16:14.282Z,2.80
2023-03-28T14:21:07.922Z,6.10
2023-03-28T14:26:04.106Z,3.40
2023-03-28T14:30:57.218Z,2.40
2023-03-28T14:36:01.909Z,3.60
2023-03-28T14:40:56.067Z,2.40
2023-03-28T14:45:54.398Z,5.00
2023-03-28T14:50:52.191Z,5.10
2023-03-28T14:55:49.498Z,3.50
2023-03-28T15:00:45.231Z,2.70
2023-03-28T15:05:39.095Z,3.40
2023-03-28T15:10:32.486Z,11.90
2023-03-28T15:15:29.961Z,16.80
2023-03-28T15:20:27.891Z,9.00
2023-03-28T15:25:21.988Z,4.90
2023-03-28T15:30:19.541Z,11.00
2023-03-28T15:35:43.629Z,2.90
2023-03-28T15:40:42.921Z,6.90
2023-03-28T15:45:45.751Z,3.00
2023-03-28T15:50:39.816Z,3.80
2023-03-28T15:55:33.001Z,2.10
2023-03-28T16:00:49.193Z,2.40
2023-03-28T16:05:42.027Z,2.20
2023-03-28T16:10:34.907Z,2.20
2023-03-28T16:15:53.951Z,3.30
2023-03-28T16:20:55.956Z,3.30
2023-03-28T16:25:48.987Z,2.50
2023-03-28T16:30:42.558Z,5.40
2023-03-28T16:35:36.223Z,6.20
2023-03-28T16:40:29.457Z,9.70
2023-03-28T16:45:22.990Z,4.50
2023-03-28T16:50:17.433Z,6.00
2023-03-28T16:55:13.050Z,3.70
2023-03-28T17:00:09.674Z,3.20
2023-03-28T17:05:02.506Z,2.90
2023-03-28T17:09:55.345Z,4.30
2023-03-28T17:14:48.670Z,5.50
2023-03-28T17:19:41.613Z,6.00
2023-03-28T17:24:34.476Z,3.30
2023-03-28T17:29:27.612Z,3.60
2023-03-28T17:34:20.668Z,3.50
2023-03-28T17:39:13.845Z,6.90
2023-03-28T17:44:09.071Z,5.60
2023-03-28T17:49:01.984Z,4.80
2023-03-28T17:53:55.712Z,2.90
2023-03-28T17:58:48.850Z,7.40
2023-03-28T18:03:42.478Z,6.00
2023-03-28T18:08:55.865Z,6.30
2023-03-28T18:13:48.710Z,5.40
2023-03-28T18:18:41.916Z,6.00
2023-03-28T18:23:37.123Z,4.50
2023-03-28T18:28:30.191Z,5.40
2023-03-28T18:33:23.654Z,5.00
2023-03-28T18:38:17.860Z,4.60
2023-03-28T18:43:10.817Z,3.50
2023-03-28T18:48:03.920Z,7.00
2023-03-28T18:52:57.480Z,4.00
2023-03-28T18:57:51.142Z,4.90
2023-03-28T19:02:45.358Z,5.00
2023-03-28T19:07:38.702Z,3.30
2023-03-28T19:12:32.001Z,5.20
2023-03-28T19:17:24.792Z,3.90
2023-03-28T19:22:17.567Z,4.40
2023-03-28T19:27:10.374Z,6.70
2023-03-28T19:32:03.318Z,7.50
2023-03-28T19:36:56.278Z,12.20
2023-03-28T19:41:49.083Z,3.70
2023-03-28T19:46:45.392Z,4.70
2023-03-28T19:51:38.460Z,4.20
2023-03-28T19:56:31.732Z,4.80
2023-03-28T20:01:24.784Z,6.40
2023-03-28T20:06:18.091Z,4.40
2023-03-28T20:11:12.553Z,4.50
2023-03-28T20:16:07.936Z,4.40
2023-03-28T20:21:03.108Z,5.90
2023-03-28T20:25:58.983Z,5.90
2023-03-28T20:30:53.423Z,7.70
2023-03-28T20:35:54.249Z,4.70
2023-03-28T20:40:47.678Z,4.00
2023-03-28T20:45:46.079Z,5.20
2023-03-28T20:50:41.441Z,6.40
2023-03-28T20:55:35.918Z,8.00
2023-03-28T21:00:33.870Z,7.60
2023-03-28T21:05:27.661Z,4.60
2023-03-28T21:10:20.867Z,8.70
2023-03-28T21:15:13.768Z,11.30
2023-03-28T21:20:10.264Z,5.70
2023-03-28T21:25:03.243Z,6.60
2023-03-28T21:29:57.134Z,5.50
2023-03-28T21:34:51.312Z,4.80
2023-03-28T21:39:44.183Z,5.90
2023-03-28T21:44:37.030Z,4.60
2023-03-28T21:49:30.665Z,4.40
2023-03-28T21:54:23.530Z,6.00
2023-03-28T21:59:16.468Z,5.60
2023-03-28T22:04:09.298Z,3.50
2023-03-28T22:09:02.729Z,4.00
2023-03-28T22:14:35.189Z,4.20
2023-03-28T22:19:30.184Z,4.40
2023-03-28T22:24:24.582Z,3.30
2023-03-28T22:29:18.105Z,5.00
2023-03-28T22:34:10.915Z,3.90
2023-03-28T22:39:03.754Z,5.10
2023-03-28T22:43:56.545Z,2.90
2023-03-28T22:48:54.317Z,3.20
2023-03-28T22:53:47.708Z,3.50
2023-03-28T22:58:40.512Z,2.80
2023-03-28T23:03:33.713Z,2.50
2023-03-28T23:08:27.304Z,4.80
2023-03-28T23:13:20.222Z,2.70
2023-03-28T23:18:14.621Z,2.90
2023-03-28T23:23:08.991Z,11.10
2023-03-28T23:28:01.817Z,3.90
2023-03-28T23:32:54.678Z,3.10
2023-03-28T23:37:47.651Z,2.80
2023-03-28T23:42:42.798Z,2.90
2023-03-28T23:47:36.109Z,3.20
2023-03-28T23:52:28.932Z,3.50
2023-03-28T23:57:25.342Z,2.70
